createdAt,value
2018-04-16T00:01:12.624Z,99.90
2018-04-16T00:03:18.916Z,99.90
2018-04-16T00:05:28.656Z,99.90
2018-04-16T00:07:33.973Z,99.90
2018-04-16T00:09:44.115Z,99.90
2018-04-16T00:11:52.885Z,99.90
2018-04-16T00:14:02.233Z,99.90
2018-04-16T00:16:10.706Z,99.90
2018-04-16T00:18:19.227Z,99.90
2018-04-16T00:20:28.782Z,99.90
2018-04-16T00:22:37.508Z,99.90
2018-04-16T00:24:45.051Z,99.90
2018-04-16T00:26:54.387Z,99.90
2018-04-16T00:29:02.935Z,99.90
2018-04-16T00:31:07.821Z,99.90
2018-04-16T00:33:17.092Z,99.90
2018-04-16T00:35:26.344Z,99.90
2018-04-16T00:37:35.540Z,99.90
2018-04-16T00:39:44.642Z,99.90
2018-04-16T00:42:03.104Z,99.90
2018-04-16T00:44:12.376Z,99.90
2018-04-16T00:46:22.441Z,99.90
2018-04-16T00:48:31.595Z,99.90
2018-04-16T00:50:40.887Z,99.90
2018-04-16T00:52:50.919Z,99.90
2018-04-16T00:55:00.076Z,99.90
2018-04-16T00:57:09.205Z,99.90
2018-04-16T00:59:18.483Z,99.90
2018-04-16T01:01:27.747Z,99.90
2018-04-16T01:03:37.096Z,99.90
2018-04-16T01:05:46.327Z,99.90
2018-04-16T01:07:55.648Z,99.90
2018-04-16T01:10:05.495Z,99.90
2018-04-16T01:12:15.109Z,99.90
2018-04-16T01:17:02.150Z,99.90
2018-04-16T01:19:11.417Z,99.90
2018-04-16T01:21:20.469Z,99.90
2018-04-16T01:23:29.697Z,99.90
2018-04-16T01:25:38.874Z,99.90
2018-04-16T01:27:48.154Z,99.90
2018-04-16T01:29:57.162Z,99.90
2018-04-16T01:32:06.231Z,99.90
2018-04-16T01:34:16.113Z,99.90
2018-04-16T01:36:25.238Z,99.90
2018-04-16T01:38:35.141Z,99.90
2018-04-16T01:40:44.312Z,99.90
2018-04-16T01:42:53.344Z,99.90
2018-04-16T01:45:02.523Z,99.90
2018-04-16T01:47:11.681Z,99.90
2018-04-16T01:49:20.793Z,99.90
2018-04-16T01:51:29.806Z,99.90
2018-04-16T01:53:39.767Z,99.90
2018-04-16T01:55:49.707Z,99.90
2018-04-16T01:57:59.729Z,99.90
2018-04-16T02:00:08.958Z,99.90
2018-04-16T02:02:18.161Z,99.90
2018-04-16T02:04:27.332Z,99.90
2018-04-16T02:06:36.481Z,99.90
2018-04-16T02:11:25.767Z,99.90
2018-04-16T02:13:34.804Z,99.90
2018-04-16T02:15:43.955Z,99.90
2018-04-16T02:17:53.123Z,99.90
2018-04-16T02:20:18.218Z,99.90
2018-04-16T02:22:36.547Z,99.90
2018-04-16T02:24:45.678Z,99.90
2018-04-16T02:26:55.508Z,99.90
2018-04-16T02:29:04.495Z,99.90
2018-04-16T02:31:14.530Z,99.90
2018-04-16T02:33:23.461Z,99.90
2018-04-16T02:35:32.414Z,99.90
2018-04-16T02:37:41.530Z,99.90
2018-04-16T02:39:50.774Z,99.90
2018-04-16T02:41:59.913Z,99.90
2018-04-16T02:44:10.001Z,99.90
2018-04-16T02:46:19.234Z,99.90
2018-04-16T02:48:28.497Z,99.90
2018-04-16T02:53:14.619Z,99.90
2018-04-16T02:55:23.564Z,99.90
2018-04-16T02:57:32.686Z,99.90
2018-04-16T02:59:42.668Z,99.90
2018-04-16T03:01:51.759Z,99.90
2018-04-16T03:04:00.957Z,99.90
2018-04-16T03:06:10.228Z,99.90
2018-04-16T03:08:19.376Z,99.90
2018-04-16T03:10:28.331Z,99.90
2018-04-16T03:12:37.570Z,99.90
2018-04-16T03:14:46.710Z,99.90
2018-04-16T03:16:55.831Z,99.90
2018-04-16T03:19:05.023Z,99.90
2018-04-16T03:21:14.298Z,99.90
2018-04-16T03:23:24.330Z,99.90
2018-04-16T03:25:33.526Z,99.90
2018-04-16T03:27:42.864Z,99.90
2018-04-16T03:29:51.920Z,99.90
2018-04-16T03:32:01.106Z,99.90
2018-04-16T03:34:11.008Z,99.90
2018-04-16T03:36:20.192Z,99.90
2018-04-16T03:38:29.412Z,99.90
2018-04-16T03:43:17.170Z,99.90
2018-04-16T03:45:26.347Z,99.90
2018-04-16T03:47:36.287Z,99.90
2018-04-16T03:49:45.402Z,99.90
2018-04-16T03:54:29.738Z,99.90
2018-04-16T03:56:33.240Z,99.90
2018-04-16T03:58:36.884Z,99.90
2018-04-16T04:00:40.392Z,99.90
2018-04-16T04:02:43.931Z,99.90
2018-04-16T04:04:47.495Z,99.90
2018-04-16T04:06:51.043Z,99.90
2018-04-16T04:08:54.608Z,99.90
2018-04-16T04:10:58.129Z,99.90
2018-04-16T04:13:01.599Z,99.90
2018-04-16T04:15:06.073Z,99.90
2018-04-16T04:17:09.588Z,99.90
2018-04-16T04:19:13.100Z,99.90
2018-04-16T04:21:16.566Z,99.90
2018-04-16T04:23:31.896Z,99.90
2018-04-16T04:26:01.010Z,99.90
2018-04-16T04:28:16.145Z,99.90
2018-04-16T04:30:29.377Z,99.90
2018-04-16T04:32:32.954Z,99.90
2018-04-16T04:34:36.423Z,99.90
2018-04-16T04:36:39.895Z,99.90
2018-04-16T04:38:43.398Z,99.90
2018-04-16T04:40:46.942Z,99.90
2018-04-16T04:42:50.506Z,99.90
2018-04-16T04:44:54.508Z,99.90
2018-04-16T04:46:59.169Z,99.90
2018-04-16T04:49:03.096Z,99.90
2018-04-16T04:51:06.755Z,99.90
2018-04-16T04:53:10.273Z,99.90
2018-04-16T04:55:14.142Z,99.90
2018-04-16T04:57:17.723Z,99.90
2018-04-16T04:59:21.314Z,99.90
2018-04-16T05:01:24.863Z,99.90
2018-04-16T05:03:29.256Z,99.90
2018-04-16T05:05:32.868Z,99.90
2018-04-16T05:07:36.420Z,99.90
2018-04-16T05:09:39.966Z,99.90
2018-04-16T05:11:43.637Z,99.90
2018-04-16T05:13:47.214Z,99.90
2018-04-16T05:15:50.776Z,99.90
2018-04-16T05:17:55.215Z,99.90
2018-04-16T05:19:58.754Z,99.90
2018-04-16T05:22:02.384Z,99.90
2018-04-16T05:24:06.750Z,99.90
2018-04-16T05:26:10.343Z,99.90
2018-04-16T05:28:13.959Z,99.90
2018-04-16T05:30:17.627Z,99.90
2018-04-16T05:32:21.208Z,99.90
2018-04-16T05:34:24.791Z,99.90
2018-04-16T05:36:29.171Z,99.90
2018-04-16T05:38:32.721Z,99.90
2018-04-16T05:40:36.341Z,99.90
2018-04-16T05:42:39.941Z,99.90
2018-04-16T05:44:43.580Z,99.90
2018-04-16T05:46:47.221Z,99.90
2018-04-16T05:48:50.788Z,99.90
2018-04-16T05:50:54.411Z,99.90
2018-04-16T05:52:58.015Z,99.90
2018-04-16T05:55:01.647Z,99.90
2018-04-16T05:57:06.092Z,99.90
2018-04-16T05:59:10.500Z,99.90
2018-04-16T06:01:14.132Z,99.90
2018-04-16T06:03:17.760Z,99.90
2018-04-16T06:05:21.377Z,99.90
2018-04-16T06:07:24.946Z,99.90
2018-04-16T06:09:28.521Z,99.90
2018-04-16T06:11:32.595Z,99.90
2018-04-16T06:13:36.228Z,99.90
2018-04-16T06:15:39.840Z,99.90
2018-04-16T06:17:43.454Z,99.90
2018-04-16T06:19:47.060Z,99.90
2018-04-16T06:21:51.522Z,99.90
2018-04-16T06:23:55.068Z,99.90
2018-04-16T06:25:58.737Z,99.90
2018-04-16T06:28:02.362Z,99.90
2018-04-16T06:30:05.987Z,99.90
2018-04-16T06:32:10.369Z,99.90
2018-04-16T06:34:14.340Z,99.90
2018-04-16T06:36:17.904Z,99.90
2018-04-16T06:38:22.215Z,99.90
2018-04-16T06:40:26.218Z,99.90
2018-04-16T06:42:30.536Z,99.90
2018-04-16T06:44:34.867Z,99.90
2018-04-16T06:46:38.483Z,99.90
2018-04-16T06:48:42.035Z,99.90
2018-04-16T06:50:45.596Z,99.90
2018-04-16T06:52:49.211Z,99.90
2018-04-16T06:54:52.808Z,99.90
2018-04-16T06:56:56.502Z,99.90
2018-04-16T06:59:00.069Z,99.90
2018-04-16T07:01:03.691Z,99.90
2018-04-16T07:03:07.395Z,99.90
2018-04-16T07:05:11.770Z,99.90
2018-04-16T07:07:15.396Z,99.90
2018-04-16T07:09:18.999Z,99.90
2018-04-16T07:11:22.856Z,99.90
2018-04-16T07:13:28.081Z,99.90
2018-04-16T07:15:36.823Z,99.90
2018-04-16T07:17:42.599Z,99.90
2018-04-16T07:19:48.644Z,99.90
2018-04-16T07:21:52.231Z,99.90
2018-04-16T07:23:55.921Z,99.90
2018-04-16T07:25:59.472Z,99.90
2018-04-16T07:28:03.855Z,99.90
2018-04-16T07:30:07.459Z,99.90
2018-04-16T07:32:11.034Z,99.90
2018-04-16T07:34:14.583Z,99.90
2018-04-16T07:36:18.209Z,99.90
2018-04-16T07:38:21.816Z,99.90
2018-04-16T07:40:25.371Z,99.90
2018-04-16T07:42:30.140Z,99.90
2018-04-16T07:44:33.734Z,99.90
2018-04-16T07:46:37.322Z,99.90
2018-04-16T07:48:41.285Z,99.90
2018-04-16T07:50:45.599Z,99.30
2018-04-16T07:52:49.942Z,99.70
2018-04-16T07:54:53.975Z,99.40
2018-04-16T07:56:57.563Z,99.50
2018-04-16T07:59:01.105Z,99.50
2018-04-16T08:01:05.553Z,99.50
2018-04-16T08:03:09.158Z,99.50
2018-04-16T08:05:12.699Z,99.90
2018-04-16T08:07:17.104Z,99.90
2018-04-16T08:09:21.473Z,99.90
2018-04-16T08:11:25.107Z,99.90
2018-04-16T08:13:28.804Z,99.90
2018-04-16T08:15:32.405Z,99.60
2018-04-16T08:17:36.007Z,98.90
2018-04-16T08:19:39.710Z,99.40
2018-04-16T08:21:43.273Z,99.10
2018-04-16T08:23:46.882Z,99.90
2018-04-16T08:25:50.464Z,99.40
2018-04-16T08:27:54.083Z,99.90
2018-04-16T08:29:57.712Z,99.90
2018-04-16T08:32:02.116Z,98.20
2018-04-16T08:34:05.643Z,98.20
2018-04-16T08:36:09.225Z,99.00
2018-04-16T08:38:12.895Z,98.20
2018-04-16T08:40:16.471Z,98.00
2018-04-16T08:42:20.087Z,98.40
2018-04-16T08:44:23.678Z,97.60
2018-04-16T08:46:27.244Z,98.20
2018-04-16T08:48:30.858Z,97.50
2018-04-16T08:50:34.423Z,98.40
2018-04-16T08:52:38.034Z,99.00
2018-04-16T08:54:41.767Z,96.40
2018-04-16T08:56:45.341Z,97.60
2018-04-16T08:58:48.898Z,97.70
2018-04-16T09:00:53.236Z,98.00
2018-04-16T09:02:56.799Z,97.90
2018-04-16T09:05:00.463Z,97.40
2018-04-16T09:07:04.043Z,96.40
2018-04-16T09:09:07.641Z,97.60
2018-04-16T09:11:11.221Z,97.70
2018-04-16T09:13:14.794Z,96.60
2018-04-16T09:15:18.364Z,96.00
2018-04-16T09:17:21.989Z,97.10
2018-04-16T09:19:25.510Z,96.80
2018-04-16T09:21:29.102Z,97.20
2018-04-16T09:23:32.653Z,97.20
2018-04-16T09:25:36.283Z,97.00
2018-04-16T09:27:40.635Z,97.40
2018-04-16T09:29:44.197Z,97.40
2018-04-16T09:31:48.634Z,95.40
2018-04-16T09:33:52.257Z,97.40
2018-04-16T09:35:55.820Z,97.30
2018-04-16T09:37:59.431Z,96.80
2018-04-16T09:40:03.224Z,97.60
2018-04-16T09:42:06.733Z,96.70
2018-04-16T09:44:10.335Z,96.10
2018-04-16T09:46:13.918Z,97.40
2018-04-16T09:48:17.491Z,94.80
2018-04-16T09:50:21.891Z,98.50
2018-04-16T09:52:25.510Z,98.40
2018-04-16T09:54:29.108Z,96.10
2018-04-16T09:56:33.199Z,96.50
2018-04-16T09:58:37.560Z,97.40
2018-04-16T10:00:46.804Z,97.50
2018-04-16T10:02:56.075Z,96.60
2018-04-16T10:04:59.679Z,96.50
2018-04-16T10:07:03.385Z,96.40
2018-04-16T10:09:06.947Z,95.90
2018-04-16T10:11:10.652Z,95.80
2018-04-16T10:13:15.064Z,97.90
2018-04-16T10:15:19.467Z,95.10
2018-04-16T10:17:23.076Z,95.00
2018-04-16T10:19:26.657Z,97.30
2018-04-16T10:21:30.256Z,96.50
2018-04-16T10:23:33.893Z,96.60
2018-04-16T10:25:38.270Z,96.40
2018-04-16T10:27:41.869Z,96.40
2018-04-16T10:29:45.475Z,96.30
2018-04-16T10:31:49.018Z,95.40
2018-04-16T10:33:52.609Z,97.10
2018-04-16T10:35:56.124Z,95.50
2018-04-16T10:37:59.710Z,94.40
2018-04-16T10:40:03.591Z,94.10
2018-04-16T10:42:07.205Z,93.70
2018-04-16T10:44:10.786Z,95.30
2018-04-16T10:46:14.370Z,92.20
2018-04-16T10:48:18.759Z,93.90
2018-04-16T10:50:22.510Z,93.90
2018-04-16T10:52:26.044Z,94.90
2018-04-16T10:54:29.713Z,94.10
2018-04-16T10:56:33.293Z,94.30
2018-04-16T10:58:36.922Z,93.00
2018-04-16T11:00:40.497Z,93.80
2018-04-16T11:02:44.123Z,95.50
2018-04-16T11:04:47.705Z,92.70
2018-04-16T11:06:51.241Z,92.90
2018-04-16T11:08:54.817Z,93.30
2018-04-16T11:10:58.406Z,92.10
2018-04-16T11:13:02.046Z,93.50
2018-04-16T11:15:05.624Z,92.70
2018-04-16T11:17:09.884Z,91.90
2018-04-16T11:19:13.571Z,91.30
2018-04-16T11:21:17.133Z,92.10
2018-04-16T11:23:20.731Z,92.40
2018-04-16T11:25:24.424Z,91.70
2018-04-16T11:27:28.103Z,91.30
2018-04-16T11:29:31.707Z,91.90
2018-04-16T11:31:35.323Z,90.60
2018-04-16T11:33:38.939Z,91.40
2018-04-16T11:35:43.252Z,93.40
2018-04-16T11:37:46.981Z,93.40
2018-04-16T11:39:50.519Z,94.30
2018-04-16T11:41:55.222Z,93.30
2018-04-16T11:43:58.826Z,93.30
2018-04-16T11:46:02.343Z,93.80
2018-04-16T11:48:06.674Z,92.50
2018-04-16T11:50:11.047Z,93.50
2018-04-16T11:52:14.571Z,93.60
2018-04-16T11:54:18.950Z,92.90
2018-04-16T11:56:26.897Z,92.80
2018-04-16T11:58:32.219Z,91.00
2018-04-16T12:00:41.051Z,91.80
2018-04-16T12:02:46.400Z,91.90
2018-04-16T12:04:51.998Z,91.50
2018-04-16T12:06:59.455Z,92.60
2018-04-16T12:09:05.078Z,91.40
2018-04-16T12:11:11.345Z,91.50
2018-04-16T12:13:16.898Z,89.30
2018-04-16T12:15:21.454Z,91.90
2018-04-16T12:17:26.328Z,87.90
2018-04-16T12:19:33.019Z,87.80
2018-04-16T12:21:37.730Z,84.40
2018-04-16T12:23:41.356Z,90.30
2018-04-16T12:25:44.994Z,80.90
2018-04-16T12:27:49.316Z,87.60
2018-04-16T12:29:54.496Z,90.00
2018-04-16T12:31:58.090Z,90.00
2018-04-16T12:34:04.196Z,86.30
2018-04-16T12:36:11.770Z,85.70
2018-04-16T12:38:15.736Z,85.80
2018-04-16T12:40:19.297Z,90.10
2018-04-16T12:42:28.234Z,85.20
2018-04-16T12:44:35.576Z,83.50
2018-04-16T12:46:43.746Z,86.60
2018-04-16T12:48:48.709Z,80.90
2018-04-16T12:50:55.435Z,84.60
2018-04-16T12:52:59.810Z,84.80
2018-04-16T12:55:07.292Z,87.90
2018-04-16T12:57:15.059Z,81.40
2018-04-16T12:59:23.427Z,77.00
2018-04-16T13:01:29.209Z,74.50
2018-04-16T13:03:35.608Z,77.30
2018-04-16T13:05:43.714Z,81.80
2018-04-16T13:07:48.378Z,76.70
2018-04-16T13:09:55.223Z,79.70
2018-04-16T13:11:59.619Z,78.90
2018-04-16T13:14:05.451Z,81.90
2018-04-16T13:16:12.560Z,81.90
2018-04-16T13:18:16.911Z,79.80
2018-04-16T13:20:20.495Z,75.60
2018-04-16T13:22:29.179Z,77.80
2018-04-16T13:24:36.686Z,73.80
2018-04-16T13:26:43.713Z,73.80
2018-04-16T13:28:48.655Z,72.10
2018-04-16T13:30:55.486Z,70.10
2018-04-16T13:33:03.226Z,71.90
2018-04-16T13:35:07.687Z,75.00
2018-04-16T13:37:11.342Z,79.20
2018-04-16T13:39:17.163Z,75.40
2018-04-16T13:41:20.711Z,79.50
2018-04-16T13:43:29.243Z,77.60
2018-04-16T13:45:33.357Z,80.00
2018-04-16T13:47:38.831Z,81.30
2018-04-16T13:49:47.678Z,81.40
2018-04-16T13:51:53.370Z,82.50
2018-04-16T13:54:02.608Z,84.10
2018-04-16T13:56:09.374Z,84.90
2018-04-16T13:58:13.710Z,84.90
2018-04-16T14:00:17.979Z,86.30
2018-04-16T14:02:24.416Z,86.60
2018-04-16T14:04:28.768Z,82.00
2018-04-16T14:06:38.675Z,80.90
2018-04-16T14:08:47.965Z,81.10
2018-04-16T14:10:55.006Z,81.20
2018-04-16T14:13:01.056Z,76.60
2018-04-16T14:15:07.914Z,79.70
2018-04-16T14:17:15.035Z,71.40
2018-04-16T14:19:20.440Z,71.60
2018-04-16T14:21:27.883Z,72.50
2018-04-16T14:23:31.410Z,73.80
2018-04-16T14:25:38.535Z,74.80
2018-04-16T14:27:45.545Z,75.20
2018-04-16T14:29:50.716Z,77.00
2018-04-16T14:31:55.096Z,75.00
2018-04-16T14:33:59.484Z,75.00
2018-04-16T14:36:05.308Z,68.40
2018-04-16T14:38:10.155Z,69.40
2018-04-16T14:40:13.774Z,77.00
2018-04-16T14:42:18.154Z,78.40
2018-04-16T14:44:21.744Z,78.40
2018-04-16T14:46:25.352Z,78.80
2018-04-16T14:48:28.863Z,83.30
2018-04-16T14:50:32.410Z,82.30
2018-04-16T14:52:36.063Z,82.60
2018-04-16T14:54:39.597Z,84.30
2018-04-16T14:56:43.950Z,88.20
2018-04-16T14:58:47.555Z,88.30
2018-04-16T15:00:51.184Z,81.40
2018-04-16T15:02:54.789Z,84.00
2018-04-16T15:04:59.212Z,82.20
2018-04-16T15:07:02.834Z,82.20
2018-04-16T15:09:06.560Z,84.50
2018-04-16T15:11:10.172Z,82.50
2018-04-16T15:13:14.556Z,83.50
2018-04-16T15:15:18.148Z,83.30
2018-04-16T15:17:22.485Z,83.30
2018-04-16T15:19:26.084Z,83.90
2018-04-16T15:21:29.596Z,83.30
2018-04-16T15:23:33.535Z,85.10
2018-04-16T15:25:37.888Z,83.40
2018-04-16T15:27:41.498Z,83.60
2018-04-16T15:29:45.092Z,84.70
2018-04-16T15:31:49.472Z,84.70
2018-04-16T15:33:53.038Z,84.20
2018-04-16T15:35:56.630Z,85.30
2018-04-16T15:38:00.207Z,86.90
2018-04-16T15:40:04.002Z,87.40
2018-04-16T15:42:08.417Z,84.90
2018-04-16T15:44:12.222Z,84.80
2018-04-16T15:46:16.625Z,87.40
2018-04-16T15:48:20.264Z,87.50
2018-04-16T15:50:24.645Z,85.00
2018-04-16T15:52:28.226Z,84.90
2018-04-16T15:54:32.215Z,87.50
2018-04-16T15:56:35.833Z,85.80
2018-04-16T15:58:39.384Z,86.40
2018-04-16T16:00:42.940Z,88.80
2018-04-16T16:02:46.473Z,87.70
2018-04-16T16:04:50.165Z,85.60
2018-04-16T16:06:54.480Z,82.80
2018-04-16T16:08:58.044Z,82.80
2018-04-16T16:11:01.644Z,82.30
2018-04-16T16:13:05.143Z,76.40
2018-04-16T16:15:09.274Z,79.40
2018-04-16T16:17:12.805Z,75.40
2018-04-16T16:19:16.374Z,75.80
2018-04-16T16:21:19.931Z,80.90
2018-04-16T16:23:23.499Z,78.70
2018-04-16T16:25:27.829Z,79.70
2018-04-16T16:27:31.411Z,79.60
2018-04-16T16:29:35.716Z,80.20
2018-04-16T16:31:40.073Z,76.60
2018-04-16T16:33:43.676Z,76.50
2018-04-16T16:35:47.306Z,79.80
2018-04-16T16:37:50.844Z,78.60
2018-04-16T16:39:55.216Z,79.30
2018-04-16T16:41:58.944Z,79.30
2018-04-16T16:44:05.901Z,75.10
2018-04-16T16:46:09.691Z,75.00
2018-04-16T16:48:13.297Z,74.30
2018-04-16T16:50:16.811Z,73.10
2018-04-16T16:52:21.128Z,71.10
2018-04-16T16:54:25.453Z,69.80
2018-04-16T16:56:29.010Z,70.20
2018-04-16T16:58:33.398Z,71.10
2018-04-16T17:00:36.908Z,71.00
2018-04-16T17:02:40.597Z,70.60
2018-04-16T17:04:44.147Z,68.90
2018-04-16T17:06:48.438Z,73.40
2018-04-16T17:08:52.337Z,72.90
2018-04-16T17:10:55.856Z,74.10
2018-04-16T17:13:00.186Z,75.30
2018-04-16T17:15:03.750Z,75.30
2018-04-16T17:17:07.288Z,77.70
2018-04-16T17:19:11.247Z,75.00
2018-04-16T17:21:14.819Z,74.70
2018-04-16T17:23:18.337Z,75.50
2018-04-16T17:25:21.908Z,74.10
2018-04-16T17:27:25.457Z,75.50
2018-04-16T17:29:29.099Z,76.70
2018-04-16T17:31:32.662Z,78.60
2018-04-16T17:33:36.305Z,76.30
2018-04-16T17:35:39.815Z,77.60
2018-04-16T17:37:43.372Z,76.10
2018-04-16T17:39:47.413Z,78.20
2018-04-16T17:41:50.927Z,77.90
2018-04-16T17:43:55.213Z,80.10
2018-04-16T17:45:59.127Z,80.20
2018-04-16T17:48:02.622Z,80.40
2018-04-16T17:50:06.155Z,79.00
2018-04-16T17:52:09.723Z,78.90
2018-04-16T17:54:13.215Z,83.30
2018-04-16T17:56:16.719Z,76.80
2018-04-16T17:58:21.572Z,79.80
2018-04-16T18:00:25.089Z,79.60
2018-04-16T18:02:28.676Z,80.90
2018-04-16T18:04:32.374Z,79.80
2018-04-16T18:06:35.934Z,80.00
2018-04-16T18:08:40.214Z,83.10
2018-04-16T18:10:43.747Z,82.80
2018-04-16T18:12:47.991Z,80.10
2018-04-16T18:14:51.575Z,80.10
2018-04-16T18:16:55.130Z,81.10
2018-04-16T18:18:58.706Z,84.20
2018-04-16T18:21:02.279Z,81.50
2018-04-16T18:23:05.915Z,82.00
2018-04-16T18:25:09.405Z,86.20
2018-04-16T18:27:12.911Z,80.60
2018-04-16T18:29:16.519Z,84.30
2018-04-16T18:31:21.211Z,82.70
2018-04-16T18:33:24.812Z,82.50
2018-04-16T18:35:28.356Z,87.90
2018-04-16T18:37:32.018Z,86.80
2018-04-16T18:39:35.518Z,80.40
2018-04-16T18:41:39.156Z,83.00
2018-04-16T18:43:42.714Z,82.80
2018-04-16T18:45:46.219Z,86.80
2018-04-16T18:47:50.519Z,86.30
2018-04-16T18:49:54.091Z,86.40
2018-04-16T18:51:57.695Z,89.20
2018-04-16T18:54:01.207Z,89.70
2018-04-16T18:56:04.827Z,88.40
2018-04-16T18:58:08.399Z,88.30
2018-04-16T19:00:12.716Z,88.40
2018-04-16T19:02:16.379Z,88.30
2018-04-16T19:04:20.029Z,89.90
2018-04-16T19:06:24.803Z,89.30
2018-04-16T19:08:28.311Z,89.30
2018-04-16T19:10:31.819Z,88.70
2018-04-16T19:12:35.366Z,89.30
2018-04-16T19:14:38.951Z,88.00
2018-04-16T19:16:43.314Z,89.50
2018-04-16T19:18:46.891Z,89.80
2018-04-16T19:20:55.965Z,90.00
2018-04-16T19:23:00.307Z,90.10
2018-04-16T19:25:03.913Z,90.00
2018-04-16T19:27:13.926Z,89.90
2018-04-16T19:29:18.299Z,90.30
2018-04-16T19:31:21.876Z,90.20
2018-04-16T19:33:30.952Z,90.30
2018-04-16T19:35:35.283Z,90.20
2018-04-16T19:37:38.836Z,90.20
2018-04-16T19:39:42.339Z,90.40
2018-04-16T19:41:51.511Z,90.40
2018-04-16T19:43:55.038Z,90.30
2018-04-16T19:45:58.567Z,90.30
2018-04-16T19:48:02.112Z,90.40
2018-04-16T19:50:05.727Z,90.20
2018-04-16T19:52:09.223Z,90.50
2018-04-16T19:54:12.762Z,84.50
2018-04-16T19:56:22.793Z,92.20
2018-04-16T19:58:26.302Z,92.20
2018-04-16T20:00:30.806Z,90.90
2018-04-16T20:02:39.954Z,90.90
2018-04-16T20:04:44.319Z,90.10
2018-04-16T20:06:47.811Z,90.10
2018-04-16T20:08:52.535Z,87.40
2018-04-16T20:10:56.063Z,87.30
2018-04-16T20:13:00.174Z,87.80
2018-04-16T20:15:03.893Z,90.40
2018-04-16T20:17:08.167Z,90.70
2018-04-16T20:19:11.772Z,90.60
2018-04-16T20:21:15.274Z,89.60
2018-04-16T20:23:19.526Z,91.80
2018-04-16T20:25:23.101Z,91.80
2018-04-16T20:27:27.379Z,88.70
2018-04-16T20:29:30.880Z,88.70
2018-04-16T20:31:34.590Z,90.20
2018-04-16T20:33:38.090Z,91.80
2018-04-16T20:35:41.711Z,90.80
2018-04-16T20:37:45.281Z,89.90
2018-04-16T20:39:48.788Z,90.60
2018-04-16T20:41:53.108Z,91.40
2018-04-16T20:43:56.732Z,91.10
2018-04-16T20:46:00.230Z,89.80
2018-04-16T20:48:03.795Z,88.60
2018-04-16T20:50:08.134Z,89.80
2018-04-16T20:52:11.698Z,89.80
2018-04-16T20:54:15.987Z,91.20
2018-04-16T20:56:19.727Z,91.10
2018-04-16T20:58:23.251Z,91.50
2018-04-16T21:00:26.792Z,90.20
2018-04-16T21:02:30.435Z,91.40
2018-04-16T21:04:34.002Z,92.00
2018-04-16T21:06:38.372Z,91.10
2018-04-16T21:08:41.984Z,91.00
2018-04-16T21:10:45.547Z,88.60
2018-04-16T21:12:49.115Z,91.00
2018-04-16T21:14:55.494Z,88.40
2018-04-16T21:17:00.590Z,91.50
2018-04-16T21:19:06.531Z,92.30
2018-04-16T21:21:13.144Z,91.90
2018-04-16T21:23:21.613Z,91.10
2018-04-16T21:25:27.057Z,91.20
2018-04-16T21:27:36.178Z,91.20
2018-04-16T21:29:45.164Z,91.10
2018-04-16T21:31:54.108Z,91.00
2018-04-16T21:33:59.369Z,91.10
2018-04-16T21:36:03.838Z,91.30
2018-04-16T21:38:08.292Z,91.20
2018-04-16T21:40:16.215Z,91.10
2018-04-16T21:42:19.814Z,91.80
2018-04-16T21:44:23.678Z,90.10
2018-04-16T21:46:29.269Z,90.20
2018-04-16T21:48:34.971Z,91.40
2018-04-16T21:50:42.157Z,90.60
2018-04-16T21:52:48.846Z,90.60
2018-04-16T21:54:52.540Z,87.70
2018-04-16T21:56:57.073Z,91.60
2018-04-16T21:59:05.981Z,90.70
2018-04-16T22:01:11.417Z,90.80
2018-04-16T22:03:15.898Z,90.90
2018-04-16T22:05:19.627Z,91.40
2018-04-16T22:07:23.595Z,90.20
2018-04-16T22:09:31.411Z,91.60
2018-04-16T22:11:37.274Z,90.50
2018-04-16T22:13:41.557Z,92.30
2018-04-16T22:15:49.652Z,91.80
2018-04-16T22:17:56.798Z,91.30
2018-04-16T22:20:05.715Z,91.80
2018-04-16T22:22:12.202Z,92.10
2018-04-16T22:24:20.089Z,92.10
2018-04-16T22:26:24.474Z,92.10
2018-04-16T22:28:33.010Z,91.60
2018-04-16T22:30:39.904Z,90.20
2018-04-16T22:32:49.066Z,92.90
2018-04-16T22:34:57.921Z,93.30
2018-04-16T22:37:02.624Z,92.90
2018-04-16T22:39:10.640Z,92.90
2018-04-16T22:41:19.498Z,91.40
2018-04-16T22:43:23.180Z,91.30
2018-04-16T22:45:29.878Z,91.80
2018-04-16T22:47:34.711Z,93.10
2018-04-16T22:49:38.226Z,93.00
2018-04-16T22:51:42.724Z,92.70
2018-04-16T22:53:46.259Z,92.70
2018-04-16T22:55:50.528Z,90.70
2018-04-16T22:57:54.087Z,90.70
2018-04-16T22:59:57.783Z,92.10
2018-04-16T23:02:01.473Z,92.10
2018-04-16T23:04:05.072Z,91.50
2018-04-16T23:06:08.597Z,92.60
2018-04-16T23:08:16.781Z,92.50
2018-04-16T23:10:20.376Z,91.80
2018-04-16T23:12:23.950Z,92.10
2018-04-16T23:14:27.499Z,92.40
2018-04-16T23:16:31.043Z,90.90
2018-04-16T23:18:38.520Z,92.20
2018-04-16T23:20:49.376Z,91.80
2018-04-16T23:22:54.694Z,91.60
2018-04-16T23:24:58.319Z,92.80
2018-04-16T23:27:01.875Z,92.30
2018-04-16T23:29:05.451Z,91.00
2018-04-16T23:31:09.055Z,91.30
2018-04-16T23:33:12.609Z,92.80
2018-04-16T23:35:16.142Z,91.70
2018-04-16T23:37:19.787Z,92.40
2018-04-16T23:39:24.070Z,92.90
2018-04-16T23:41:27.675Z,92.90
2018-04-16T23:43:32.085Z,92.80
2018-04-16T23:45:36.502Z,92.80
2018-04-16T23:47:40.151Z,92.80
2018-04-16T23:49:43.767Z,94.50
2018-04-16T23:51:47.314Z,92.90
2018-04-16T23:53:51.842Z,92.90
2018-04-16T23:55:56.151Z,94.00
2018-04-16T23:57:59.654Z,94.00
